Time;durP1;ratioP1;P1;durP2;ratioP2;P2;SDS_P1;SDS_P2;PMS_P1;PMS_P2;Temp;Humidity;BMP_temperature;BMP_pressure;BME280_temperature;BME280_humidity;BME280_pressure;Samples;Min_cycle;Max_cycle;Signal;HPM_P1;HPM_P2
2022/01/12 00:00:06;;;;;;;;;;;9.20;99.30;;;;;;5018232;28;20004;-74
2022/01/12 00:02:32;;;;;;;;;;;9.30;99.30;;;;;;5017971;28;20392;-74
2022/01/12 00:04:57;;;;;;;;;;;9.20;99.30;;;;;;5017954;28;19909;-74
2022/01/12 00:07:23;;;;;;;;;;;9.20;99.30;;;;;;5018119;28;19959;-74
2022/01/12 00:09:49;;;;;;;;;;;9.20;99.30;;;;;;5017965;28;19956;-74
2022/01/12 00:12:14;;;;;;;;;;;9.20;99.30;;;;;;5017943;28;19910;-74
2022/01/12 00:14:40;;;;;;;;;;;9.20;99.30;;;;;;5017864;28;19909;-74
2022/01/12 00:17:06;;;;;;;;;;;9.20;99.30;;;;;;5017985;28;19925;-74
2022/01/12 00:19:31;;;;;;;;;;;9.20;99.30;;;;;;5017894;28;20008;-74
2022/01/12 00:21:57;;;;;;;;;;;9.20;99.30;;;;;;5017561;28;20373;-74
2022/01/12 00:24:39;;;;;;;;;;;9.20;99.30;;;;;;5017678;28;20024;-74
2022/01/12 00:35:17;;;;;;;;;;;9.10;99.40;;;;;;5021508;28;19936;-74
2022/01/12 00:37:43;;;;;;;;;;;9.10;99.30;;;;;;5021221;28;20386;-74
2022/01/12 00:40:09;;;;;;;;;;;9.10;99.40;;;;;;5021618;28;19940;-74
2022/01/12 00:42:35;;;;;;;;;;;9.10;99.40;;;;;;5021402;28;20775;-74
2022/01/12 00:45:02;;;;;;;;;;;9.00;99.40;;;;;;5021641;28;20327;-74
2022/01/12 00:47:28;;;;;;;;;;;9.10;99.50;;;;;;5028180;28;20373;-74
2022/01/12 00:49:54;;;;;;;;;;;9.00;99.70;;;;;;5021475;28;19910;-74
2022/01/12 00:52:19;;;;;;;;;;;9.00;99.50;;;;;;5020763;28;19920;-74
2022/01/12 00:54:45;;;;;;;;;;;9.00;99.50;;;;;;5021144;28;19910;-74
2022/01/12 00:57:11;;;;;;;;;;;9.00;99.50;;;;;;5021327;28;20000;-74
2022/01/12 00:59:36;;;;;;;;;;;9.00;99.50;;;;;;5021545;28;19995;-74
2022/01/12 01:02:02;;;;;;;;;;;8.90;99.50;;;;;;5019627;28;20048;-74
2022/01/12 01:04:28;;;;;;;;;;;8.90;99.50;;;;;;5021219;28;19917;-74
2022/01/12 01:06:54;;;;;;;;;;;9.00;99.60;;;;;;5020649;28;19914;-74
2022/01/12 01:09:22;;;;;;;;;;;9.00;99.60;;;;;;5020776;28;20000;-74
2022/01/12 01:11:48;;;;;;;;;;;8.90;99.60;;;;;;5021040;28;19909;-74
2022/01/12 01:14:21;;;;;;;;;;;9.00;99.60;;;;;;5020945;28;19916;-74
2022/01/12 01:25:28;;;;;;;;;;;8.90;99.60;;;;;;5020605;28;19913;-74
2022/01/12 01:25:51;;;;;;;;;;;8.90;99.70;;;;;;4998747;28;19997;-73
2022/01/12 01:28:10;;;;;;;;;;;8.90;99.70;;;;;;5018122;28;19914;-74
2022/01/12 01:30:37;;;;;;;;;;;8.90;99.70;;;;;;5020786;28;19980;-74
2022/01/12 01:33:06;;;;;;;;;;;8.90;99.80;;;;;;5026864;28;19910;-74
2022/01/12 01:35:35;;;;;;;;;;;8.90;99.80;;;;;;5020566;28;19914;-73
2022/01/12 01:38:02;;;;;;;;;;;8.90;99.80;;;;;;5020051;28;19910;-73
2022/01/12 01:40:28;;;;;;;;;;;8.80;99.80;;;;;;5019353;28;19909;-74
2022/01/12 01:43:44;;;;;;;;;;;8.90;99.80;;;;;;5020166;28;19910;-73
2022/01/12 01:53:52;;;;;;;;;;;8.80;99.90;;;;;;5019997;28;19932;-74
2022/01/12 01:56:19;;;;;;;;;;;8.80;99.90;;;;;;5019995;28;19914;-74
2022/01/12 01:58:45;;;;;;;;;;;8.80;99.90;;;;;;5020126;28;19916;-74
2022/01/12 02:01:11;;;;;;;;;;;8.80;99.80;;;;;;5020069;28;19976;-74
2022/01/12 02:03:36;;;;;;;;;;;8.80;99.90;;;;;;5019937;28;20600;-74
2022/01/12 02:06:07;;;;;;;;;;;8.80;99.90;;;;;;5019909;28;20365;-74
2022/01/12 02:08:32;;;;;;;;;;;8.80;99.80;;;;;;5019360;28;19910;-74
2022/01/12 02:10:58;;;;;;;;;;;8.80;99.80;;;;;;5019755;28;19910;-74
2022/01/12 02:13:25;;;;;;;;;;;8.80;99.90;;;;;;5019908;28;19917;-74
2022/01/12 02:15:51;;;;;;;;;;;8.80;99.90;;;;;;5019669;28;19913;-74
2022/01/12 02:18:31;;;;;;;;;;;8.80;99.90;;;;;;5019538;28;20393;-74
2022/01/12 02:40:18;;;;;;;;;;;8.80;99.80;;;;;;5019403;28;19916;-74
2022/01/12 02:42:48;;;;;;;;;;;8.80;99.80;;;;;;5019188;28;20339;-74
2022/01/12 02:55:51;;;;;;;;;;;8.90;99.70;;;;;;5018695;28;19920;-74
2022/01/12 02:58:17;;;;;;;;;;;8.80;99.60;;;;;;5018992;28;19909;-74
2022/01/12 03:03:22;;;;;;;;;;;8.90;99.60;;;;;;5019188;28;20442;-74
2022/01/12 03:05:56;;;;;;;;;;;8.90;99.60;;;;;;5019102;28;19909;-74
2022/01/12 03:08:24;;;;;;;;;;;8.90;99.60;;;;;;5018571;28;20352;-74
2022/01/12 03:10:50;;;;;;;;;;;8.90;99.60;;;;;;5018685;28;19953;-74
2022/01/12 03:13:16;;;;;;;;;;;8.90;99.60;;;;;;5018615;28;20372;-73
2022/01/12 03:15:42;;;;;;;;;;;8.90;99.60;;;;;;5018936;28;19936;-73
2022/01/12 03:18:08;;;;;;;;;;;8.90;99.60;;;;;;5018899;28;19909;-73
2022/01/12 03:20:33;;;;;;;;;;;8.90;99.60;;;;;;5019023;28;19914;-73
2022/01/12 03:22:59;;;;;;;;;;;8.90;99.60;;;;;;5018135;28;19914;-74
2022/01/12 03:25:25;;;;;;;;;;;8.90;99.60;;;;;;5018579;28;19928;-74
2022/01/12 03:27:56;;;;;;;;;;;8.90;99.60;;;;;;5018375;28;20320;-74
2022/01/12 03:30:22;;;;;;;;;;;8.90;99.60;;;;;;5018420;28;20372;-74
2022/01/12 03:33:01;;;;;;;;;;;8.90;99.60;;;;;;5024788;28;19941;-73
2022/01/12 03:35:47;;;;;;;;;;;8.90;99.60;;;;;;5018383;28;19913;-74
2022/01/12 03:38:21;;;;;;;;;;;8.90;99.60;;;;;;5017978;28;19916;-74
2022/01/12 03:40:48;;;;;;;;;;;8.90;99.60;;;;;;5018209;28;19983;-73
2022/01/12 03:43:14;;;;;;;;;;;8.90;99.60;;;;;;5018207;28;19923;-74
2022/01/12 03:45:41;;;;;;;;;;;8.90;99.60;;;;;;5018269;28;19960;-73
2022/01/12 03:48:06;;;;;;;;;;;8.90;99.60;;;;;;5026605;28;19910;-73
2022/01/12 03:50:32;;;;;;;;;;;8.90;99.70;;;;;;5018270;28;20265;-73
2022/01/12 03:52:57;;;;;;;;;;;8.90;99.70;;;;;;5017971;28;19916;-73
2022/01/12 03:55:23;;;;;;;;;;;8.90;99.70;;;;;;5017980;28;19914;-73
2022/01/12 03:57:49;;;;;;;;;;;8.90;99.70;;;;;;5018236;28;19935;-73
2022/01/12 04:00:14;;;;;;;;;;;8.90;99.70;;;;;;5018123;28;19909;-74
2022/01/12 04:02:40;;;;;;;;;;;8.90;99.70;;;;;;5020528;28;19936;-74
2022/01/12 04:10:16;;;;;;;;;;;8.90;99.70;;;;;;5024617;28;19948;-73
2022/01/12 04:12:42;;;;;;;;;;;8.90;99.70;;;;;;5024479;28;20281;-73
2022/01/12 04:15:07;;;;;;;;;;;8.90;99.70;;;;;;5024358;28;19917;-73
2022/01/12 04:17:33;;;;;;;;;;;8.90;99.70;;;;;;5024525;28;20004;-73
2022/01/12 04:20:01;;;;;;;;;;;8.90;99.70;;;;;;5024506;28;19917;-73
2022/01/12 04:25:11;;;;;;;;;;;8.80;99.70;;;;;;5024287;28;19932;-73
2022/01/12 04:27:37;;;;;;;;;;;8.80;99.70;;;;;;5024604;28;20063;-73
2022/01/12 04:30:04;;;;;;;;;;;8.80;99.70;;;;;;5024289;28;19909;-73
2022/01/12 04:32:30;;;;;;;;;;;8.80;99.70;;;;;;5030442;28;20391;-74
2022/01/12 04:34:58;;;;;;;;;;;8.80;99.70;;;;;;5023745;28;20127;-73
2022/01/12 04:37:24;;;;;;;;;;;8.80;99.70;;;;;;5023934;28;19909;-73
2022/01/12 04:39:49;;;;;;;;;;;8.80;99.70;;;;;;5024511;28;19959;-73
2022/01/12 04:42:15;;;;;;;;;;;8.80;99.70;;;;;;5024081;28;19918;-73
2022/01/12 04:44:45;;;;;;;;;;;8.80;99.70;;;;;;5024514;28;19905;-73
2022/01/12 04:47:17;;;;;;;;;;;8.80;99.70;;;;;;5031962;28;19931;-73
2022/01/12 04:52:11;;;;;;;;;;;8.80;99.70;;;;;;5023677;28;19925;-73
2022/01/12 04:54:37;;;;;;;;;;;8.80;99.70;;;;;;5024233;28;19909;-73
2022/01/12 04:57:02;;;;;;;;;;;8.80;99.70;;;;;;5023943;28;19914;-73
2022/01/12 04:59:29;;;;;;;;;;;8.80;99.70;;;;;;5023989;28;19910;-73
2022/01/12 05:01:59;;;;;;;;;;;8.80;99.70;;;;;;5023900;28;19916;-74
2022/01/12 05:09:51;;;;;;;;;;;8.80;99.70;;;;;;5024179;28;20283;-73
2022/01/12 05:15:07;;;;;;;;;;;8.80;99.70;;;;;;5020108;28;19923;-74
2022/01/12 05:17:34;;;;;;;;;;;8.80;99.60;;;;;;5020838;28;20265;-73
2022/01/12 05:19:59;;;;;;;;;;;8.80;99.70;;;;;;5020672;28;19913;-73
2022/01/12 05:22:25;;;;;;;;;;;8.80;99.60;;;;;;5020661;28;19910;-73
2022/01/12 05:24:52;;;;;;;;;;;8.80;99.60;;;;;;5020797;28;19929;-73
2022/01/12 05:27:18;;;;;;;;;;;8.80;99.70;;;;;;5020933;28;19914;-73
2022/01/12 05:29:43;;;;;;;;;;;8.80;99.60;;;;;;5020470;28;19920;-74
2022/01/12 05:32:10;;;;;;;;;;;8.80;99.70;;;;;;5024606;28;20349;-73
2022/01/12 05:34:37;;;;;;;;;;;8.80;99.70;;;;;;5022594;28;19909;-72
2022/01/12 05:37:03;;;;;;;;;;;8.80;99.70;;;;;;5020362;28;19920;-72
2022/01/12 05:39:28;;;;;;;;;;;8.80;99.70;;;;;;5020659;28;19909;-71
2022/01/12 05:41:54;;;;;;;;;;;8.80;99.70;;;;;;5020680;28;19910;-71
2022/01/12 05:44:22;;;;;;;;;;;8.80;99.60;;;;;;5020096;28;19914;-69
2022/01/12 05:46:48;;;;;;;;;;;8.80;99.60;;;;;;5026146;28;19955;-69
2022/01/12 05:51:57;;;;;;;;;;;8.80;99.60;;;;;;5019913;28;20467;-73
2022/01/12 05:54:23;;;;;;;;;;;8.80;99.60;;;;;;5020024;28;20048;-72
2022/01/12 05:56:48;;;;;;;;;;;8.80;99.70;;;;;;5019912;28;20384;-73
2022/01/12 05:59:14;;;;;;;;;;;8.80;99.70;;;;;;5020202;28;19909;-73
2022/01/12 06:01:40;;;;;;;;;;;8.80;99.70;;;;;;5020164;28;19916;-73
2022/01/12 06:04:05;;;;;;;;;;;8.80;99.70;;;;;;5020155;28;19913;-71
2022/01/12 06:06:31;;;;;;;;;;;8.80;99.70;;;;;;5019901;28;19916;-72
2022/01/12 06:08:57;;;;;;;;;;;8.80;99.70;;;;;;5019820;28;19910;-71
2022/01/12 06:11:23;;;;;;;;;;;8.80;99.70;;;;;;5019683;28;19909;-78
2022/01/12 06:13:50;;;;;;;;;;;8.80;99.70;;;;;;5018798;28;19910;-73
2022/01/12 06:16:16;;;;;;;;;;;8.80;99.70;;;;;;5019643;28;19913;-72
2022/01/12 06:18:42;;;;;;;;;;;8.80;99.70;;;;;;5019638;28;19933;-72
2022/01/12 06:21:07;;;;;;;;;;;8.80;99.80;;;;;;5019661;28;19913;-72
2022/01/12 06:23:33;;;;;;;;;;;8.80;99.80;;;;;;5019323;28;19910;-74
2022/01/12 06:25:58;;;;;;;;;;;8.80;99.80;;;;;;5018960;28;19960;-75
2022/01/12 06:28:37;;;;;;;;;;;8.80;99.80;;;;;;5019461;28;19909;-75
2022/01/12 06:31:10;;;;;;;;;;;8.80;99.80;;;;;;5019341;28;19956;-75
2022/01/12 06:33:37;;;;;;;;;;;8.80;99.80;;;;;;5025835;28;19909;-76
2022/01/12 06:36:03;;;;;;;;;;;8.80;99.80;;;;;;5019347;28;19920;-76
2022/01/12 06:38:28;;;;;;;;;;;8.80;99.80;;;;;;5019113;28;19910;-76
2022/01/12 06:40:54;;;;;;;;;;;8.80;99.80;;;;;;5017755;28;19916;-76
2022/01/12 06:43:20;;;;;;;;;;;8.80;99.80;;;;;;5019227;28;19916;-76
2022/01/12 06:45:45;;;;;;;;;;;8.80;99.80;;;;;;5019245;28;19909;-76
2022/01/12 06:48:11;;;;;;;;;;;8.80;99.80;;;;;;5026090;28;20412;-77
2022/01/12 06:50:37;;;;;;;;;;;8.80;99.80;;;;;;5019110;28;19933;-75
2022/01/12 06:53:02;;;;;;;;;;;8.80;99.80;;;;;;5018890;28;19917;-76
2022/01/12 06:55:28;;;;;;;;;;;8.80;99.90;;;;;;5018932;28;21500;-75
2022/01/12 06:57:53;;;;;;;;;;;8.80;99.80;;;;;;5019161;28;20447;-75
2022/01/12 07:00:19;;;;;;;;;;;8.80;99.80;;;;;;5018762;28;19960;-75
2022/01/12 07:02:45;;;;;;;;;;;8.80;99.80;;;;;;5018929;28;19910;-76
2022/01/12 07:05:10;;;;;;;;;;;8.80;99.80;;;;;;5018003;28;19910;-75
2022/01/12 07:07:36;;;;;;;;;;;8.80;99.80;;;;;;5018646;28;19909;-75
2022/01/12 07:10:03;;;;;;;;;;;8.80;99.90;;;;;;5018812;28;19909;-76
2022/01/12 07:12:29;;;;;;;;;;;8.80;99.90;;;;;;5018660;28;19910;-75
2022/01/12 07:14:54;;;;;;;;;;;8.80;99.90;;;;;;5018673;28;19909;-75
2022/01/12 07:17:20;;;;;;;;;;;8.80;99.90;;;;;;5018802;28;19913;-75
2022/01/12 07:19:46;;;;;;;;;;;8.80;99.90;;;;;;5019030;28;19910;-75
2022/01/12 07:22:11;;;;;;;;;;;8.80;99.90;;;;;;5018342;28;19952;-75
2022/01/12 07:24:37;;;;;;;;;;;8.80;99.90;;;;;;5016877;28;19956;-75
2022/01/12 07:27:03;;;;;;;;;;;8.80;99.90;;;;;;5019094;28;20339;-76
2022/01/12 07:29:28;;;;;;;;;;;8.80;99.90;;;;;;5018290;28;19910;-76
2022/01/12 07:31:54;;;;;;;;;;;8.80;99.90;;;;;;5019124;28;19917;-75
2022/01/12 07:34:20;;;;;;;;;;;8.80;99.90;;;;;;5022580;28;19920;-75
2022/01/12 07:36:45;;;;;;;;;;;8.80;99.90;;;;;;5017977;28;19913;-75
2022/01/12 07:39:11;;;;;;;;;;;8.80;99.90;;;;;;5018018;28;19910;-76
2022/01/12 07:41:37;;;;;;;;;;;8.80;99.90;;;;;;5018513;28;20285;-75
2022/01/12 07:44:02;;;;;;;;;;;8.80;99.90;;;;;;5018235;28;19909;-75
2022/01/12 07:46:28;;;;;;;;;;;8.80;99.90;;;;;;5021755;28;19909;-76
2022/01/12 07:48:54;;;;;;;;;;;8.80;99.90;;;;;;5022608;28;19909;-75
2022/01/12 07:51:20;;;;;;;;;;;8.80;99.90;;;;;;5017994;28;19913;-75
2022/01/12 07:53:45;;;;;;;;;;;8.80;99.90;;;;;;5018166;28;19957;-77
2022/01/12 07:56:11;;;;;;;;;;;8.80;99.90;;;;;;5018112;28;19935;-75
2022/01/12 07:58:37;;;;;;;;;;;8.80;99.90;;;;;;5018225;28;20357;-76
2022/01/12 08:01:03;;;;;;;;;;;8.80;99.90;;;;;;5018164;28;19988;-76
2022/01/12 08:03:28;;;;;;;;;;;8.80;99.90;;;;;;5016667;28;20016;-75
2022/01/12 08:05:54;;;;;;;;;;;8.80;99.90;;;;;;5018108;28;19909;-75
2022/01/12 08:08:20;;;;;;;;;;;8.80;99.90;;;;;;5017706;28;19920;-75
2022/01/12 08:10:45;;;;;;;;;;;8.80;99.90;;;;;;5017925;28;20400;-75
2022/01/12 08:13:11;;;;;;;;;;;8.80;99.90;;;;;;5017958;28;20323;-77
2022/01/12 08:15:37;;;;;;;;;;;8.80;99.90;;;;;;5017955;28;20269;-75
2022/01/12 08:18:03;;;;;;;;;;;8.80;99.90;;;;;;5018115;28;19948;-75
2022/01/12 08:20:28;;;;;;;;;;;8.80;99.90;;;;;;5017998;28;20400;-75
2022/01/12 08:22:54;;;;;;;;;;;8.80;99.90;;;;;;5017412;28;19909;-75
2022/01/12 08:25:20;;;;;;;;;;;8.80;99.90;;;;;;5017828;28;19925;-75
2022/01/12 08:27:46;;;;;;;;;;;8.80;99.90;;;;;;5016452;28;19916;-76
2022/01/12 08:30:19;;;;;;;;;;;8.80;99.90;;;;;;5018012;28;19917;-77
2022/01/12 08:32:46;;;;;;;;;;;8.80;99.90;;;;;;5024082;28;19915;-77
2022/01/12 08:35:12;;;;;;;;;;;8.80;99.90;;;;;;5017779;28;19957;-75
2022/01/12 08:37:38;;;;;;;;;;;8.80;99.90;;;;;;5017560;28;19909;-77
2022/01/12 08:40:03;;;;;;;;;;;8.80;99.90;;;;;;5016613;28;20407;-75
2022/01/12 08:42:29;;;;;;;;;;;8.80;99.90;;;;;;5017558;28;20473;-75
2022/01/12 08:44:59;;;;;;;;;;;8.80;99.90;;;;;;5017766;28;19909;-77
2022/01/12 08:47:25;;;;;;;;;;;8.80;99.90;;;;;;5025666;28;19910;-77
2022/01/12 08:49:51;;;;;;;;;;;8.80;99.80;;;;;;5020568;28;19917;-77
2022/01/12 08:52:17;;;;;;;;;;;8.80;99.80;;;;;;5021171;28;19910;-77
2022/01/12 08:54:42;;;;;;;;;;;8.90;99.80;;;;;;5021266;28;19992;-77
2022/01/12 08:57:08;;;;;;;;;;;8.90;99.80;;;;;;5021459;28;20453;-77
2022/01/12 08:59:34;;;;;;;;;;;8.80;99.70;;;;;;5021586;28;19910;-77
2022/01/12 09:01:59;;;;;;;;;;;8.90;99.80;;;;;;5021069;28;19913;-77
2022/01/12 09:04:27;;;;;;;;;;;8.90;99.80;;;;;;5021412;28;19936;-77
2022/01/12 09:06:53;;;;;;;;;;;8.90;99.80;;;;;;5020622;28;19948;-77
2022/01/12 09:09:19;;;;;;;;;;;8.90;99.60;;;;;;5020975;28;19959;-74
2022/01/12 09:11:45;;;;;;;;;;;8.90;99.50;;;;;;5020894;28;19920;-74
2022/01/12 09:14:11;;;;;;;;;;;8.90;99.50;;;;;;5020896;28;20295;-74
2022/01/12 09:16:37;;;;;;;;;;;8.90;99.50;;;;;;5020773;28;19913;-74
2022/01/12 09:19:03;;;;;;;;;;;8.90;99.40;;;;;;5020917;28;19924;-74
2022/01/12 09:21:28;;;;;;;;;;;8.90;99.30;;;;;;5020669;28;19909;-74
2022/01/12 09:23:54;;;;;;;;;;;8.90;99.30;;;;;;5020692;28;19956;-74
2022/01/12 09:26:20;;;;;;;;;;;8.80;99.30;;;;;;5020588;28;19932;-74
2022/01/12 09:28:47;;;;;;;;;;;8.80;99.30;;;;;;5020666;28;19910;-75
2022/01/12 09:31:13;;;;;;;;;;;8.90;99.40;;;;;;5020771;28;19960;-74
2022/01/12 09:33:39;;;;;;;;;;;8.90;99.40;;;;;;5025411;28;19909;-74
2022/01/12 09:36:05;;;;;;;;;;;8.90;99.40;;;;;;5020650;28;19953;-74
2022/01/12 09:38:31;;;;;;;;;;;8.90;99.40;;;;;;5020389;28;19944;-74
2022/01/12 09:40:56;;;;;;;;;;;8.90;99.40;;;;;;5020358;28;19964;-74
2022/01/12 09:43:23;;;;;;;;;;;8.90;99.40;;;;;;5020368;28;19921;-74
2022/01/12 09:45:50;;;;;;;;;;;8.90;99.40;;;;;;5020653;28;19910;-77
2022/01/12 09:48:19;;;;;;;;;;;8.90;99.40;;;;;;5027932;28;19937;-77
2022/01/12 09:50:45;;;;;;;;;;;8.90;99.30;;;;;;5020142;28;20288;-77
2022/01/12 09:53:11;;;;;;;;;;;8.90;99.40;;;;;;5019943;28;19960;-76
2022/01/12 09:55:37;;;;;;;;;;;8.90;99.30;;;;;;5019938;28;19913;-77
2022/01/12 09:58:04;;;;;;;;;;;8.90;99.30;;;;;;5020167;28;19910;-77
2022/01/12 10:00:29;;;;;;;;;;;8.90;99.30;;;;;;5019298;28;19928;-77
2022/01/12 10:02:56;;;;;;;;;;;8.90;99.30;;;;;;5020202;28;19993;-77
2022/01/12 10:05:28;;;;;;;;;;;8.90;99.20;;;;;;5020132;28;19910;-77
2022/01/12 10:07:54;;;;;;;;;;;8.90;99.20;;;;;;5019720;28;19957;-77
2022/01/12 10:10:20;;;;;;;;;;;8.90;99.10;;;;;;5019761;28;19913;-77
2022/01/12 10:12:55;;;;;;;;;;;8.90;99.10;;;;;;5019809;28;19910;-77
2022/01/12 10:15:21;;;;;;;;;;;8.90;99.10;;;;;;5019833;28;20008;-77
2022/01/12 10:17:46;;;;;;;;;;;8.90;99.00;;;;;;5019889;28;20324;-77
2022/01/12 10:20:12;;;;;;;;;;;8.90;99.00;;;;;;5019583;28;19910;-77
2022/01/12 10:22:38;;;;;;;;;;;8.90;99.00;;;;;;5018006;28;19914;-77
2022/01/12 10:25:18;;;;;;;;;;;8.90;98.80;;;;;;5019500;28;19925;-77
2022/01/12 10:27:44;;;;;;;;;;;8.90;98.80;;;;;;5019784;28;19910;-77
2022/01/12 10:30:18;;;;;;;;;;;8.90;98.90;;;;;;5019696;28;19914;-77
2022/01/12 10:32:43;;;;;;;;;;;8.90;98.90;;;;;;5024166;28;19968;-77
2022/01/12 10:35:09;;;;;;;;;;;8.90;98.80;;;;;;5019500;28;20099;-77
2022/01/12 10:37:35;;;;;;;;;;;8.90;99.00;;;;;;5019256;28;19996;-77
2022/01/12 10:40:00;;;;;;;;;;;8.90;98.70;;;;;;5019392;28;20004;-76
2022/01/12 10:42:27;;;;;;;;;;;8.90;98.70;;;;;;5019130;28;20004;-77
2022/01/12 10:44:57;;;;;;;;;;;9.00;98.80;;;;;;5019499;28;19948;-76
2022/01/12 10:47:31;;;;;;;;;;;9.00;98.80;;;;;;5026929;28;19996;-76
2022/01/12 10:49:59;;;;;;;;;;;9.00;98.70;;;;;;5019320;28;19949;-77
2022/01/12 10:52:29;;;;;;;;;;;9.00;98.60;;;;;;5018659;28;20004;-74
2022/01/12 10:54:56;;;;;;;;;;;9.00;98.60;;;;;;5018199;28;19910;-74
2022/01/12 10:57:29;;;;;;;;;;;9.00;98.50;;;;;;5018835;28;20375;-74
2022/01/12 11:00:06;;;;;;;;;;;9.10;98.60;;;;;;5019192;28;19909;-74
2022/01/12 11:02:32;;;;;;;;;;;9.10;98.60;;;;;;5019015;28;20035;-74
2022/01/12 11:04:58;;;;;;;;;;;9.20;98.70;;;;;;5019237;28;19916;-74
2022/01/12 11:07:25;;;;;;;;;;;9.20;98.60;;;;;;5018855;28;19960;-74
2022/01/12 11:09:55;;;;;;;;;;;9.30;99.00;;;;;;5018615;28;19917;-74
2022/01/12 11:12:20;;;;;;;;;;;9.30;98.70;;;;;;5017812;28;19909;-74
2022/01/12 11:14:46;;;;;;;;;;;9.40;98.60;;;;;;5018790;28;19916;-74
2022/01/12 11:17:12;;;;;;;;;;;9.50;98.50;;;;;;5018699;28;19914;-74
2022/01/12 11:19:39;;;;;;;;;;;9.40;98.30;;;;;;5018898;28;19923;-74
2022/01/12 11:22:24;;;;;;;;;;;9.40;98.30;;;;;;5018383;28;19932;-73
2022/01/12 11:24:53;;;;;;;;;;;9.40;98.20;;;;;;5018397;28;20386;-74
2022/01/12 11:27:19;;;;;;;;;;;9.30;98.00;;;;;;5018809;28;19916;-74
2022/01/12 11:29:45;;;;;;;;;;;9.30;98.00;;;;;;5018663;28;19909;-74
2022/01/12 11:32:12;;;;;;;;;;;9.30;97.80;;;;;;5022866;28;19917;-74
2022/01/12 11:34:38;;;;;;;;;;;9.20;97.80;;;;;;5020964;28;19910;-74
2022/01/12 11:37:10;;;;;;;;;;;9.20;97.80;;;;;;5018297;28;19914;-74
2022/01/12 11:39:36;;;;;;;;;;;9.30;98.00;;;;;;5018358;28;19910;-74
2022/01/12 11:42:02;;;;;;;;;;;9.30;98.10;;;;;;5018412;28;19909;-74
2022/01/12 11:44:34;;;;;;;;;;;9.30;98.00;;;;;;5018182;28;19909;-74
2022/01/12 11:46:59;;;;;;;;;;;9.30;98.00;;;;;;5026028;28;19944;-74
2022/01/12 11:49:37;;;;;;;;;;;9.40;97.90;;;;;;5018851;28;19909;-74
2022/01/12 11:52:14;;;;;;;;;;;9.30;97.70;;;;;;5017745;28;19909;-74
2022/01/12 11:54:43;;;;;;;;;;;9.30;97.60;;;;;;5018489;28;20352;-74
2022/01/12 11:57:18;;;;;;;;;;;9.30;97.50;;;;;;5017945;28;19917;-73
2022/01/12 11:59:52;;;;;;;;;;;9.30;97.50;;;;;;5018036;28;19909;-73
2022/01/12 12:02:19;;;;;;;;;;;9.30;97.50;;;;;;5018123;28;19916;-74
2022/01/12 12:04:52;;;;;;;;;;;9.30;97.60;;;;;;5018279;28;19916;-74
2022/01/12 12:07:18;;;;;;;;;;;9.30;97.60;;;;;;5017538;28;19932;-73
2022/01/12 12:09:48;;;;;;;;;;;9.40;97.70;;;;;;5018111;28;20332;-74
2022/01/12 12:12:21;;;;;;;;;;;9.40;97.80;;;;;;5017767;28;19932;-74
2022/01/12 12:14:51;;;;;;;;;;;9.40;98.00;;;;;;5017930;28;19917;-77
2022/01/12 12:17:17;;;;;;;;;;;9.50;98.00;;;;;;5016606;28;20292;-77
2022/01/12 12:19:43;;;;;;;;;;;9.50;98.00;;;;;;5017886;28;20305;-74
2022/01/12 12:22:10;;;;;;;;;;;9.60;97.90;;;;;;5017813;28;19931;-74
2022/01/12 12:24:35;;;;;;;;;;;9.60;97.90;;;;;;5020014;28;19964;-75
2022/01/12 12:27:01;;;;;;;;;;;9.60;97.80;;;;;;5022141;28;19917;-73
2022/01/12 12:29:27;;;;;;;;;;;9.60;97.60;;;;;;5021742;28;19948;-74
2022/01/12 12:31:54;;;;;;;;;;;9.70;97.40;;;;;;5023774;28;19910;-73
2022/01/12 12:34:23;;;;;;;;;;;9.60;97.50;;;;;;5025934;28;20369;-74
2022/01/12 12:36:56;;;;;;;;;;;9.70;97.60;;;;;;5021278;28;20365;-76
2022/01/12 12:39:21;;;;;;;;;;;9.70;97.60;;;;;;5021447;28;20010;-74
2022/01/12 12:41:47;;;;;;;;;;;9.70;97.60;;;;;;5020267;28;19961;-74
2022/01/12 12:44:23;;;;;;;;;;;9.70;97.60;;;;;;5020398;28;19996;-74
2022/01/12 12:46:49;;;;;;;;;;;9.70;97.60;;;;;;5027724;28;19909;-77
2022/01/12 12:49:15;;;;;;;;;;;9.60;97.60;;;;;;5023286;28;19967;-76
2022/01/12 12:51:41;;;;;;;;;;;9.70;97.60;;;;;;5021212;28;19916;-77
2022/01/12 12:54:06;;;;;;;;;;;9.70;97.60;;;;;;5021247;28;19917;-76
2022/01/12 12:56:40;;;;;;;;;;;9.70;97.60;;;;;;5021496;28;19917;-76
2022/01/12 12:59:07;;;;;;;;;;;9.70;97.70;;;;;;5021211;28;19916;-77
2022/01/12 13:01:33;;;;;;;;;;;9.80;97.90;;;;;;5019955;28;19953;-77
2022/01/12 13:03:59;;;;;;;;;;;9.80;97.90;;;;;;5019772;28;19916;-77
2022/01/12 13:06:30;;;;;;;;;;;9.90;97.90;;;;;;5021162;28;19956;-77
2022/01/12 13:09:03;;;;;;;;;;;9.90;98.20;;;;;;5021158;28;20012;-77
2022/01/12 13:11:36;;;;;;;;;;;9.90;97.90;;;;;;5021312;28;20455;-77
2022/01/12 13:14:09;;;;;;;;;;;10.00;97.60;;;;;;5019676;28;19909;-77
2022/01/12 13:16:35;;;;;;;;;;;10.00;97.40;;;;;;5020974;28;19913;-76
2022/01/12 13:19:08;;;;;;;;;;;10.00;97.40;;;;;;5020969;28;19916;-76
2022/01/12 13:21:34;;;;;;;;;;;10.00;97.30;;;;;;5020868;28;19909;-76
2022/01/12 13:24:00;;;;;;;;;;;10.00;97.40;;;;;;5020832;28;19910;-76
2022/01/12 13:26:32;;;;;;;;;;;10.00;97.70;;;;;;5020874;28;19929;-77
2022/01/12 13:28:58;;;;;;;;;;;10.00;97.20;;;;;;5020780;28;20341;-77
2022/01/12 13:31:24;;;;;;;;;;;10.00;97.30;;;;;;5020761;28;19910;-76
2022/01/12 13:33:53;;;;;;;;;;;10.00;97.40;;;;;;5026861;28;19984;-76
2022/01/12 13:36:26;;;;;;;;;;;10.00;97.50;;;;;;5017763;28;19932;-76
2022/01/12 13:38:56;;;;;;;;;;;10.10;97.50;;;;;;5020741;28;19910;-74
2022/01/12 13:41:25;;;;;;;;;;;10.10;97.40;;;;;;5020692;28;20339;-75
2022/01/12 13:44:05;;;;;;;;;;;10.10;97.30;;;;;;5020524;28;19910;-74
2022/01/12 13:46:34;;;;;;;;;;;10.10;97.40;;;;;;5024305;28;19913;-75
2022/01/12 13:51:38;;;;;;;;;;;10.20;97.50;;;;;;5020471;28;19910;-74
2022/01/12 13:54:04;;;;;;;;;;;10.20;97.50;;;;;;5019962;28;19917;-74
2022/01/12 13:56:37;;;;;;;;;;;10.30;97.50;;;;;;5020308;28;19917;-74
2022/01/12 13:59:03;;;;;;;;;;;10.20;97.40;;;;;;5019946;28;19916;-74
2022/01/12 14:01:30;;;;;;;;;;;10.30;97.40;;;;;;5020537;28;19913;-74
2022/01/12 14:04:06;;;;;;;;;;;10.30;97.40;;;;;;5020034;28;19916;-74
2022/01/12 14:06:37;;;;;;;;;;;10.30;97.30;;;;;;5019623;28;20341;-74
2022/01/12 14:09:08;;;;;;;;;;;10.40;97.30;;;;;;5019754;28;20365;-74
2022/01/12 14:11:37;;;;;;;;;;;10.40;97.40;;;;;;5019914;28;20360;-74
2022/01/12 14:14:03;;;;;;;;;;;10.50;97.60;;;;;;5020007;28;19909;-74
2022/01/12 14:16:32;;;;;;;;;;;10.50;97.60;;;;;;5019669;28;20334;-74
2022/01/12 14:19:01;;;;;;;;;;;10.50;97.70;;;;;;5019940;28;19917;-75
2022/01/12 14:21:27;;;;;;;;;;;10.50;97.80;;;;;;5019651;28;19928;-74
2022/01/12 14:23:55;;;;;;;;;;;10.60;97.80;;;;;;5019693;28;19909;-74
2022/01/12 14:26:20;;;;;;;;;;;10.60;97.80;;;;;;5019342;28;20036;-74
2022/01/12 14:28:46;;;;;;;;;;;10.60;97.80;;;;;;5019778;28;19944;-74
2022/01/12 14:31:12;;;;;;;;;;;10.70;97.70;;;;;;5019351;28;19916;-74
2022/01/12 14:33:37;;;;;;;;;;;10.70;97.60;;;;;;5025688;28;19910;-74
2022/01/12 14:36:03;;;;;;;;;;;10.60;97.30;;;;;;5019120;28;19941;-74
2022/01/12 14:38:29;;;;;;;;;;;10.70;97.40;;;;;;5019554;28;19933;-74
2022/01/12 14:40:54;;;;;;;;;;;10.60;97.30;;;;;;5019400;28;19917;-74
2022/01/12 14:43:21;;;;;;;;;;;10.60;97.40;;;;;;5019350;28;19913;-74
2022/01/12 14:45:47;;;;;;;;;;;10.70;97.60;;;;;;5019158;28;20388;-74
2022/01/12 14:48:14;;;;;;;;;;;10.70;97.70;;;;;;5026649;28;19925;-75
2022/01/12 14:50:40;;;;;;;;;;;10.70;97.70;;;;;;5019290;28;19917;-74
2022/01/12 14:53:07;;;;;;;;;;;10.70;97.70;;;;;;5018945;28;20013;-74
2022/01/12 14:55:32;;;;;;;;;;;10.70;97.70;;;;;;5018806;28;19913;-74
2022/01/12 14:57:58;;;;;;;;;;;10.80;97.80;;;;;;5019174;28;19916;-74
2022/01/12 15:00:29;;;;;;;;;;;10.80;97.80;;;;;;5018945;28;19909;-74
2022/01/12 15:02:55;;;;;;;;;;;10.80;97.80;;;;;;5018846;28;19909;-74
2022/01/12 15:05:22;;;;;;;;;;;10.80;97.80;;;;;;5018751;28;19945;-74
2022/01/12 15:07:48;;;;;;;;;;;10.80;97.80;;;;;;5018800;28;19910;-75
2022/01/12 15:10:13;;;;;;;;;;;10.80;97.80;;;;;;5018861;28;19910;-74
2022/01/12 15:12:40;;;;;;;;;;;10.80;97.80;;;;;;5018686;28;19913;-74
2022/01/12 15:15:07;;;;;;;;;;;10.80;97.90;;;;;;5018638;28;20029;-74
2022/01/12 15:17:34;;;;;;;;;;;10.80;97.80;;;;;;5018588;28;20320;-75
2022/01/12 15:20:00;;;;;;;;;;;10.80;97.70;;;;;;5018629;28;20273;-74
2022/01/12 15:22:26;;;;;;;;;;;10.80;97.70;;;;;;5018341;28;19952;-74
2022/01/12 15:24:51;;;;;;;;;;;10.80;97.50;;;;;;5018399;28;19929;-74
2022/01/12 15:27:17;;;;;;;;;;;10.80;97.30;;;;;;5018834;28;20124;-74
2022/01/12 15:29:43;;;;;;;;;;;10.80;97.40;;;;;;5018371;28;19999;-74
2022/01/12 15:32:09;;;;;;;;;;;10.70;97.40;;;;;;5022478;28;19913;-74
2022/01/12 15:34:36;;;;;;;;;;;10.70;97.50;;;;;;5016189;28;20333;-74
2022/01/12 15:37:02;;;;;;;;;;;10.70;97.50;;;;;;5018901;28;20529;-74
2022/01/12 15:39:28;;;;;;;;;;;10.70;97.60;;;;;;5036634;28;19915;-74
2022/01/12 15:41:54;;;;;;;;;;;10.70;97.60;;;;;;5036760;28;20372;-74
2022/01/12 15:44:19;;;;;;;;;;;10.70;97.70;;;;;;5037865;28;19913;-75
2022/01/12 15:46:45;;;;;;;;;;;10.60;97.60;;;;;;5038208;28;19916;-74